Terminal Aerodrome Forecast
Issued by NWS

Home | Current Version | Previous Version | Text Only | Print | Product List | Glossary On
Versions: 1 2 3 4 5 6 7 8 9 10 11 12 13 14 15 16 17 18 19 20 21 22 23 24 25 26 27 28
000
FTUS41 KBUF 170900 AAA
TAFJHW
TAF AMD
KJHW 170903Z 1709/1806 18004KT P6SM SCT030 BKN040
      TEMPO 1710/1712 2SM BR
     FM171300 VRB03KT P6SM SCT040
     FM171500 21005KT P6SM SCT040
     FM171800 26006KT P6SM SCT035
     FM172300 30005KT P6SM SCT200
     FM180300 26004KT P6SM FEW200
      AMD LTD TO CLD VIS AND WIND=

USA.gov is the U.S. government's official web portal to all federal, state and local government web resources and services.